Time;durP1;ratioP1;P1;durP2;ratioP2;P2;SDS_P1;SDS_P2;PMS_P1;PMS_P2;Temp;Humidity;BMP_temperature;BMP_pressure;BME280_temperature;BME280_humidity;BME280_pressure;Samples;Min_cycle;Max_cycle;Signal;HPM_P1;HPM_P2
2021/08/11 00:00:09;;;;;;;5.07;4.60;;;;;;;14.85;89.03;100546.75;5047349;28;20243;-77
2021/08/11 00:02:36;;;;;;;4.83;4.23;;;;;;;14.83;88.93;100554.69;5046705;28;20240;-78
2021/08/11 00:05:02;;;;;;;4.93;4.53;;;;;;;14.82;88.98;100544.22;5047463;28;20205;-77
2021/08/11 00:07:30;;;;;;;7.03;4.40;;;;;;;14.81;89.32;100547.78;5048125;28;20764;-79
2021/08/11 00:09:56;;;;;;;4.50;4.20;;;;;;;14.78;88.83;100551.34;5045883;28;20205;-78
2021/08/11 00:12:23;;;;;;;5.23;4.73;;;;;;;14.80;88.95;100561.81;5046671;28;20283;-77
2021/08/11 00:14:49;;;;;;;4.90;4.50;;;;;;;14.79;88.85;100560.97;5046358;28;20211;-80
2021/08/11 00:17:16;;;;;;;4.63;4.23;;;;;;;14.80;89.21;100557.41;5046994;28;20279;-80
2021/08/11 00:19:42;;;;;;;4.23;3.90;;;;;;;14.84;89.03;100563.44;5047097;28;20222;-80
2021/08/11 00:22:09;;;;;;;5.03;3.93;;;;;;;14.83;89.11;100548.59;5045694;28;20225;-80
2021/08/11 00:24:36;;;;;;;5.90;4.00;;;;;;;14.83;88.93;100561.72;5046636;28;20214;-80
2021/08/11 00:27:03;;;;;;;3.97;3.67;;;;;;;14.79;88.40;100575.88;5047431;28;20205;-80
2021/08/11 00:29:29;;;;;;;3.97;3.67;;;;;;;14.75;88.71;100569.00;5046019;28;20259;-79
2021/08/11 00:31:56;;;;;;;4.43;4.13;;;;;;;14.69;89.24;100547.28;5046447;28;20197;-80
2021/08/11 00:34:22;;;;;;;4.53;4.13;;;;;;;14.70;89.53;100538.47;5049276;28;20595;-80
2021/08/11 00:36:49;;;;;;;4.53;4.23;;;;;;;14.68;89.19;100557.84;5049025;28;20213;-80
2021/08/11 00:39:15;;;;;;;4.90;4.10;;;;;;;14.67;89.26;100551.72;5048656;28;20277;-80
2021/08/11 00:41:45;;;;;;;4.80;4.40;;;;;;;14.70;89.09;100556.88;5048729;28;20236;-81
2021/08/11 00:44:12;;;;;;;4.93;4.53;;;;;;;14.69;89.17;100554.31;5048380;28;20261;-81
2021/08/11 00:46:41;;;;;;;4.53;3.90;;;;;;;14.70;89.29;100540.25;5048052;28;20313;-80
2021/08/11 00:49:11;;;;;;;4.77;4.37;;;;;;;14.70;89.38;100537.63;5050194;28;20315;-82
2021/08/11 00:51:37;;;;;;;4.90;4.23;;;;;;;14.65;89.45;100527.28;5048536;28;20255;-80
2021/08/11 00:54:06;;;;;;;4.20;3.90;;;;;;;14.64;89.89;100522.06;5053874;28;20325;-80
2021/08/11 00:56:34;;;;;;;4.50;4.20;;;;;;;14.65;89.30;100529.91;5054760;28;20293;-83
2021/08/11 00:59:03;;;;;;;5.20;4.77;;;;;;;14.65;90.00;100529.06;5054156;28;20214;-82
2021/08/11 01:01:32;;;;;;;4.63;4.33;;;;;;;14.63;90.14;100515.13;5052964;28;20257;-80
2021/08/11 01:04:00;;;;;;;4.20;3.83;;;;;;;14.60;90.00;100509.94;5049574;28;20646;-80
2021/08/11 01:06:28;;;;;;;4.07;3.73;;;;;;;14.61;89.80;100530.06;5054049;28;20301;-80
2021/08/11 01:08:55;;;;;;;4.70;4.37;;;;;;;14.61;90.10;100527.44;5053210;28;20213;-80
2021/08/11 01:11:22;;;;;;;4.37;3.97;;;;;;;14.59;90.18;100522.25;5053573;28;20346;-80
2021/08/11 01:13:49;;;;;;;4.00;3.60;;;;;;;14.60;90.03;100531.81;5054808;28;20232;-80
2021/08/11 01:16:17;;;;;;;4.30;3.93;;;;;;;14.59;89.73;100534.50;5054935;28;20209;-81
2021/08/11 01:18:44;;;;;;;4.50;4.10;;;;;;;14.53;89.62;100535.56;5051531;28;20263;-80
2021/08/11 01:21:15;;;;;;;4.33;4.00;;;;;;;14.55;89.47;100539.00;5052373;28;20209;-81
2021/08/11 01:23:50;;;;;;;4.17;3.87;;;;;;;14.54;89.58;100547.75;5052227;28;20224;-80
2021/08/11 01:26:27;;;;;;;4.37;3.97;;;;;;;14.54;90.13;100533.78;5053833;28;20270;-81
2021/08/11 01:29:03;;;;;;;4.77;4.37;;;;;;;14.52;90.21;100532.97;5052032;28;20705;-80
2021/08/11 01:31:43;;;;;;;3.97;3.63;;;;;;;14.49;90.25;100533.94;5050701;28;20224;-80
2021/08/11 01:34:16;;;;;;;4.10;3.80;;;;;;;14.49;89.62;100552.31;5047973;28;20228;-80
2021/08/11 01:36:51;;;;;;;5.70;4.90;;;;;;;14.51;90.08;100534.75;5047755;28;20336;-78
2021/08/11 01:39:28;;;;;;;4.47;4.07;;;;;;;14.49;90.53;100520.81;5047433;28;20202;-78
2021/08/11 01:41:59;;;;;;;5.00;4.10;;;;;;;14.52;90.07;100525.09;5046336;28;20230;-78
2021/08/11 01:44:32;;;;;;;3.97;3.67;;;;;;;14.50;90.40;100526.00;5046211;28;20267;-80
2021/08/11 01:46:59;;;;;;;4.00;3.70;;;;;;;14.48;90.20;100533.06;5047710;28;20291;-78
2021/08/11 01:49:28;;;;;;;4.93;4.53;;;;;;;14.50;90.73;100514.63;5046297;28;20821;-80
2021/08/11 01:51:56;;;;;;;9.80;5.10;;;;;;;14.38;91.14;100507.16;5047328;28;20260;-80
2021/08/11 01:54:24;;;;;;;4.47;4.07;;;;;;;14.42;91.19;100490.41;5047843;28;20274;-80
2021/08/11 01:56:51;;;;;;;4.77;4.47;;;;;;;14.43;91.49;100497.34;5047298;28;20216;-81
2021/08/11 01:59:18;;;;;;;4.70;4.30;;;;;;;14.39;91.45;100482.63;5047229;28;20209;-80
2021/08/11 02:01:45;;;;;;;4.70;4.30;;;;;;;14.39;91.08;100501.88;5045598;28;20232;-80
2021/08/11 02:04:14;;;;;;;4.00;3.70;;;;;;;14.39;91.13;100501.00;5045606;28;20232;-80
2021/08/11 02:06:43;;;;;;;4.97;4.50;;;;;;;14.38;91.33;100488.78;5046742;28;20209;-81
2021/08/11 02:09:11;;;;;;;6.20;5.70;;;;;;;14.39;91.74;100480.88;5047678;28;20263;-80
2021/08/11 02:11:41;;;;;;;4.67;4.33;;;;;;;14.39;91.09;100499.25;5047886;28;20208;-79
2021/08/11 02:14:09;;;;;;;5.43;4.97;;;;;;;14.37;91.27;100487.94;5046601;28;20225;-79
2021/08/11 02:16:36;;;;;;;7.17;5.67;;;;;;;14.41;91.19;100496.53;5047477;28;20258;-79
2021/08/11 02:19:02;;;;;;;5.17;4.77;;;;;;;14.43;91.13;100505.22;5047489;28;20257;-78
2021/08/11 02:21:29;;;;;;;6.37;5.30;;;;;;;14.44;91.07;100502.56;5046740;28;20581;-79
2021/08/11 02:23:56;;;;;;;5.90;5.43;;;;;;;14.47;91.27;100497.22;5045569;28;20235;-78
2021/08/11 02:26:29;;;;;;;4.90;4.60;;;;;;;14.50;90.94;100499.72;5046524;28;20346;-78
2021/08/11 02:29:01;;;;;;;5.40;4.90;;;;;;;14.48;90.83;100514.69;5044745;28;21197;-79
2021/08/11 02:31:35;;;;;;;5.50;5.00;;;;;;;14.43;91.38;100503.50;5045604;28;20273;-79
2021/08/11 02:34:08;;;;;;;5.83;5.30;;;;;;;14.45;91.06;100496.41;5044551;28;20235;-78
2021/08/11 02:36:43;;;;;;;5.13;4.70;;;;;;;14.46;91.05;100500.75;5045910;28;20220;-78
2021/08/11 02:39:13;;;;;;;5.70;5.17;;;;;;;14.42;90.66;100504.38;5045450;28;21155;-79
2021/08/11 02:41:44;;;;;;;6.10;5.67;;;;;;;14.41;90.34;100525.44;5045989;28;20221;-79
2021/08/11 02:44:17;;;;;;;5.70;5.30;;;;;;;14.39;91.09;100515.00;5044649;28;20255;-78
2021/08/11 02:46:44;;;;;;;5.60;5.20;;;;;;;14.37;90.66;100523.81;5044613;28;20223;-78
2021/08/11 02:49:16;;;;;;;7.30;5.40;;;;;;;14.37;91.01;100508.94;5045824;28;20283;-78
2021/08/11 02:51:43;;;;;;;5.93;5.43;;;;;;;14.39;91.10;100511.50;5045091;28;20216;-78
2021/08/11 02:54:15;;;;;;;6.07;5.57;;;;;;;14.41;91.41;100505.31;5044574;28;20216;-78
2021/08/11 02:56:45;;;;;;;6.77;6.27;;;;;;;14.39;91.29;100504.50;5045461;28;20274;-78
2021/08/11 02:59:12;;;;;;;7.50;6.20;;;;;;;14.41;91.38;100507.06;5044186;28;20735;-78
2021/08/11 03:01:39;;;;;;;9.03;7.93;;;;;;;14.42;91.29;100506.16;5044967;28;20207;-78
2021/08/11 03:04:06;;;;;;;6.67;5.97;;;;;;;14.46;91.82;100489.38;5043964;28;20228;-78
2021/08/11 03:06:33;;;;;;;6.43;5.90;;;;;;;14.49;91.22;100508.53;5045761;28;20207;-79
2021/08/11 03:09:01;;;;;;;6.30;5.90;;;;;;;14.44;91.29;100510.44;5045732;28;20754;-79
2021/08/11 03:11:30;;;;;;;7.43;6.83;;;;;;;14.49;91.86;100502.41;5046630;28;20576;-78
2021/08/11 03:13:57;;;;;;;6.63;6.03;;;;;;;14.52;91.69;100498.81;5045348;28;20217;-80
2021/08/11 03:16:23;;;;;;;6.43;5.93;;;;;;;14.54;91.32;100507.50;5047734;28;20202;-81
2021/08/11 03:18:50;;;;;;;7.30;6.70;;;;;;;14.54;90.95;100515.38;5047965;28;20223;-81
2021/08/11 03:21:17;;;;;;;6.77;6.27;;;;;;;14.51;90.63;100540.00;5048107;28;20249;-80
2021/08/11 03:23:43;;;;;;;7.17;6.50;;;;;;;14.46;90.75;100531.41;5046242;28;20231;-80
2021/08/11 03:26:10;;;;;;;7.93;7.23;;;;;;;14.45;90.85;100530.56;5046351;28;20270;-80
2021/08/11 03:28:38;;;;;;;6.33;5.83;;;;;;;14.47;91.44;100520.84;5046250;28;21226;-80
2021/08/11 03:31:05;;;;;;;7.67;7.03;;;;;;;14.46;91.35;100513.88;5047226;28;20242;-79
2021/08/11 03:33:31;;;;;;;8.33;7.73;;;;;;;14.46;91.38;100513.03;5045819;28;20217;-79
2021/08/11 03:35:58;;;;;;;7.33;6.80;;;;;;;14.42;91.28;100509.63;5046915;28;20209;-78
2021/08/11 03:38:24;;;;;;;7.73;7.13;;;;;;;14.48;91.67;100511.19;5046527;28;20216;-78
2021/08/11 03:40:50;;;;;;;8.00;7.37;;;;;;;14.36;91.66;100507.22;5046323;28;20574;-79
2021/08/11 03:43:17;;;;;;;6.80;6.30;;;;;;;14.36;91.44;100512.47;5045292;28;20296;-80
2021/08/11 03:45:45;;;;;;;7.00;6.50;;;;;;;14.37;91.67;100498.44;5047765;28;20204;-79
2021/08/11 03:48:11;;;;;;;8.33;7.60;;;;;;;14.41;91.40;100514.94;5051755;28;20220;-80
2021/08/11 03:50:38;;;;;;;7.27;6.67;;;;;;;14.33;90.94;100520.47;5048745;28;20217;-79
2021/08/11 03:53:04;;;;;;;8.37;7.23;;;;;;;14.34;91.07;100516.91;5047520;28;20223;-80
2021/08/11 03:55:32;;;;;;;7.33;6.83;;;;;;;14.30;91.05;100523.19;5049035;28;20254;-82
2021/08/11 03:57:59;;;;;;;8.73;7.90;;;;;;;14.31;90.71;100530.16;5050094;28;20210;-80
2021/08/11 04:00:25;;;;;;;8.50;7.90;;;;;;;14.31;90.81;100535.41;5050085;28;20223;-83
2021/08/11 04:02:54;;;;;;;8.13;7.43;;;;;;;14.36;91.97;100514.25;5048937;28;20233;-82
2021/08/11 04:05:20;;;;;;;7.97;7.40;;;;;;;14.39;91.79;100506.25;5049919;28;20295;-84
2021/08/11 04:07:46;;;;;;;8.23;7.63;;;;;;;14.33;91.44;100517.84;5050099;28;20212;-81
2021/08/11 04:10:13;;;;;;;8.20;7.50;;;;;;;14.32;91.10;100528.38;5050267;28;20204;-82
2021/08/11 04:12:40;;;;;;;7.80;7.20;;;;;;;14.31;91.70;100519.66;5050508;28;20278;-80
2021/08/11 04:15:07;;;;;;;8.10;7.30;;;;;;;14.30;91.81;100515.31;5047743;28;20562;-79
2021/08/11 04:17:34;;;;;;;8.33;7.60;;;;;;;14.33;91.46;100522.22;5047802;28;20208;-82
2021/08/11 04:20:02;;;;;;;9.77;9.07;;;;;;;14.30;92.01;100510.91;5045776;28;20663;-77
2021/08/11 04:22:28;;;;;;;8.33;7.63;;;;;;;14.34;92.30;100514.28;5044973;28;20507;-80
2021/08/11 04:24:55;;;;;;;8.03;7.43;;;;;;;14.33;92.28;100507.34;5044759;28;20263;-79
2021/08/11 04:27:21;;;;;;;9.27;8.47;;;;;;;14.35;91.82;100525.63;5048705;28;20211;-79
2021/08/11 04:29:47;;;;;;;9.67;8.80;;;;;;;14.35;92.00;100523.00;5049175;28;20204;-77
2021/08/11 04:32:14;;;;;;;9.73;9.03;;;;;;;14.34;92.35;100516.91;5048924;28;20255;-77
2021/08/11 04:34:40;;;;;;;9.70;9.00;;;;;;;14.35;92.70;100500.25;5048432;28;20204;-79
2021/08/11 04:37:08;;;;;;;9.83;8.83;;;;;;;14.39;92.54;100501.00;5048855;28;20201;-78
2021/08/11 04:39:35;;;;;;;10.33;9.53;;;;;;;14.50;92.97;100489.22;5049902;28;20265;-79
2021/08/11 04:42:02;;;;;;;10.90;9.50;;;;;;;14.54;92.68;100503.09;5047656;28;20247;-77
2021/08/11 04:44:28;;;;;;;9.70;8.90;;;;;;;14.56;92.85;100505.69;5050173;28;20290;-77
2021/08/11 04:46:56;;;;;;;10.33;9.43;;;;;;;14.56;92.69;100510.94;5049256;28;20696;-80
2021/08/11 04:49:23;;;;;;;11.10;10.10;;;;;;;14.68;93.19;100500.88;5050403;28;20209;-81
2021/08/11 04:51:49;;;;;;;9.87;9.07;;;;;;;14.69;92.86;100502.63;5050832;28;20278;-79
2021/08/11 04:54:17;;;;;;;9.60;8.70;;;;;;;14.70;92.85;100508.72;5047317;28;20234;-79
2021/08/11 04:56:44;;;;;;;9.53;8.63;;;;;;;14.69;92.55;100513.13;5048682;28;20212;-77
2021/08/11 04:59:10;;;;;;;10.47;9.37;;;;;;;14.72;92.99;100519.19;5048734;28;20671;-79
2021/08/11 05:01:36;;;;;;;9.13;8.37;;;;;;;14.77;93.05;100515.50;5048078;28;21548;-78
2021/08/11 05:04:03;;;;;;;11.27;10.47;;;;;;;14.78;92.56;100532.94;5047742;28;20232;-77
2021/08/11 05:06:29;;;;;;;11.10;10.27;;;;;;;14.81;93.08;100522.34;5049037;28;20694;-79
2021/08/11 05:08:56;;;;;;;11.30;10.30;;;;;;;14.84;93.45;100513.50;5049351;28;20216;-81
2021/08/11 05:11:25;;;;;;;11.00;10.10;;;;;;;14.91;93.97;100493.13;5049197;28;20220;-80
2021/08/11 05:13:51;;;;;;;13.97;12.80;;;;;;;14.88;93.74;100494.06;5046649;28;20319;-83
2021/08/11 05:16:17;;;;;;;13.87;12.40;;;;;;;14.96;93.73;100506.94;5048888;28;20265;-79
2021/08/11 05:18:44;;;;;;;11.43;10.63;;;;;;;15.04;94.14;100495.25;5047067;28;20244;-79
2021/08/11 05:21:10;;;;;;;13.00;11.80;;;;;;;15.13;94.19;100495.81;5048553;28;20209;-80
2021/08/11 05:23:37;;;;;;;12.70;10.67;;;;;;;15.21;93.99;100502.50;5047329;28;20262;-78
2021/08/11 05:26:03;;;;;;;11.83;10.60;;;;;;;15.24;94.14;100509.41;5046438;28;20618;-79
2021/08/11 05:28:31;;;;;;;12.13;11.03;;;;;;;15.23;94.09;100505.09;5046340;28;20271;-79
2021/08/11 05:30:58;;;;;;;13.67;12.57;;;;;;;15.28;93.54;100519.78;5047440;28;20225;-77
2021/08/11 05:33:24;;;;;;;15.50;14.07;;;;;;;15.25;93.61;100517.25;5047158;28;20213;-79
2021/08/11 05:35:50;;;;;;;16.03;13.80;;;;;;;15.27;93.45;100535.59;5047961;28;20209;-79
2021/08/11 05:38:17;;;;;;;16.10;14.70;;;;;;;15.36;94.08;100514.25;5048248;28;21169;-80
2021/08/11 05:40:43;;;;;;;16.03;14.53;;;;;;;15.41;93.59;100528.06;5047697;28;20224;-78
2021/08/11 05:43:10;;;;;;;16.40;14.80;;;;;;;15.47;93.24;100537.50;5044813;28;20229;-79
2021/08/11 05:45:39;;;;;;;16.90;15.40;;;;;;;15.57;93.09;100540.63;5048057;28;20223;-79
2021/08/11 05:48:05;;;;;;;17.13;15.43;;;;;;;15.65;93.35;100531.53;5047561;28;20201;-78
2021/08/11 05:50:32;;;;;;;17.20;15.53;;;;;;;15.69;92.86;100553.31;5045946;28;20209;-79
2021/08/11 05:52:58;;;;;;;13.40;12.13;;;;;;;15.77;92.65;100556.53;5047368;28;20271;-81
2021/08/11 05:55:25;;;;;;;15.00;13.67;;;;;;;15.82;93.24;100545.84;5049232;28;20610;-79
2021/08/11 05:57:51;;;;;;;19.03;17.23;;;;;;;15.81;92.31;100570.44;5050463;28;20201;-79
2021/08/11 06:00:18;;;;;;;15.90;13.13;;;;;;;15.78;92.63;100589.84;5049172;28;20258;-81
2021/08/11 06:06:02;;;;;;;15.67;14.17;;;;;;;15.73;93.22;100562.84;5017663;28;20225;-80
2021/08/11 06:08:28;;;;;;;18.60;16.93;;;;;;;15.72;93.13;100562.84;5047969;28;20205;-80
2021/08/11 06:10:55;;;;;;;17.93;16.10;;;;;;;15.71;93.16;100559.38;5048408;28;20197;-80
2021/08/11 06:13:21;;;;;;;19.23;17.43;;;;;;;15.71;93.12;100569.91;5047347;28;20727;-80
2021/08/11 06:15:48;;;;;;;17.77;16.27;;;;;;;15.71;92.99;100569.91;5048074;28;20208;-79
2021/08/11 06:18:15;;;;;;;17.90;16.03;;;;;;;15.69;93.20;100572.59;5048481;28;20201;-80
2021/08/11 06:20:41;;;;;;;15.87;14.47;;;;;;;15.68;93.64;100559.50;5047876;28;20801;-80
2021/08/11 06:23:09;;;;;;;16.70;14.90;;;;;;;15.65;94.04;100543.84;5047670;28;20241;-80
2021/08/11 06:25:35;;;;;;;15.23;13.73;;;;;;;15.64;94.30;100534.22;5046422;28;20205;-80
2021/08/11 06:28:02;;;;;;;24.47;18.27;;;;;;;15.63;94.87;100517.56;5045618;28;20205;-82
2021/08/11 06:30:28;;;;;;;20.67;18.40;;;;;;;15.66;94.94;100519.25;5045129;28;20262;-81
2021/08/11 06:32:55;;;;;;;24.40;21.77;;;;;;;15.56;94.96;100520.50;5044942;28;20707;-81
2021/08/11 06:38:14;;;;;;;22.37;20.13;;;;;;;15.63;95.15;100514.09;5047028;28;20205;-82
2021/08/11 06:40:43;;;;;;;23.47;20.97;;;;;;;15.57;93.95;100545.91;5046307;28;20220;-82
2021/08/11 06:43:09;;;;;;;23.97;21.53;;;;;;;15.61;94.16;100560.66;5044913;28;20792;-81
2021/08/11 06:45:36;;;;;;;26.00;23.20;;;;;;;15.64;93.86;100563.19;5046522;28;20201;-81
2021/08/11 06:48:04;;;;;;;27.13;23.37;;;;;;;15.64;94.38;100552.66;5045793;28;20202;-81
2021/08/11 06:50:30;;;;;;;27.80;22.70;;;;;;;15.74;94.62;100547.91;5045295;28;20696;-81
2021/08/11 06:52:57;;;;;;;26.37;22.80;;;;;;;15.73;93.83;100576.00;5045856;28;20648;-81
2021/08/11 06:55:24;;;;;;;26.50;22.47;;;;;;;15.78;93.53;100584.59;5046891;28;20220;-81
2021/08/11 06:57:51;;;;;;;30.97;23.17;;;;;;;15.78;93.31;100595.13;5045316;28;20229;-81
2021/08/11 07:00:19;;;;;;;25.70;23.07;;;;;;;15.86;93.48;100594.84;5045904;28;20691;-82
2021/08/11 07:02:45;;;;;;;33.00;24.70;;;;;;;15.80;93.53;100595.91;5046589;28;20255;-81
2021/08/11 07:05:13;;;;;;;30.43;25.20;;;;;;;15.81;93.73;100591.50;5045196;28;20316;-81
2021/08/11 07:07:39;;;;;;;29.83;24.13;;;;;;;15.88;93.96;100578.06;5045613;28;20220;-81
2021/08/11 07:10:06;;;;;;;33.43;25.97;;;;;;;15.91;93.75;100578.84;5045139;28;20213;-81
2021/08/11 07:12:34;;;;;;;28.87;25.00;;;;;;;15.93;92.94;100608.59;5045423;28;20627;-81
2021/08/11 07:15:01;;;;;;;28.30;23.50;;;;;;;15.99;92.62;100629.44;5044412;28;20609;-81
2021/08/11 07:17:27;;;;;;;35.70;24.83;;;;;;;15.93;92.76;100635.78;5045098;28;20591;-81
2021/08/11 07:19:54;;;;;;;28.20;23.67;;;;;;;16.00;93.34;100631.16;5044871;28;20960;-82
2021/08/11 07:22:22;;;;;;;26.80;22.13;;;;;;;16.04;92.90;100630.97;5045341;28;20263;-82
2021/08/11 07:24:49;;;;;;;34.13;23.70;;;;;;;16.12;92.99;100627.19;5044914;28;20714;-81
2021/08/11 07:27:15;;;;;;;30.50;24.47;;;;;;;16.18;93.36;100633.06;5044289;28;20210;-81
2021/08/11 07:29:43;;;;;;;28.20;25.10;;;;;;;16.31;92.95;100633.44;5044382;28;20263;-81
2021/08/11 07:32:10;;;;;;;25.73;23.00;;;;;;;16.35;91.98;100681.59;5042855;28;20255;-81
2021/08/11 07:34:36;;;;;;;28.33;25.37;;;;;;;16.40;90.96;100711.28;5045126;28;20928;-83
2021/08/11 07:37:12;;;;;;;35.20;24.93;;;;;;;16.59;91.83;100701.72;5045065;28;20213;-81
2021/08/11 07:39:38;;;;;;;26.23;23.63;;;;;;;16.51;91.37;100710.84;5043609;28;20209;-81
2021/08/11 07:42:05;;;;;;;27.07;24.13;;;;;;;16.67;90.81;100728.63;5044056;28;20225;-81
2021/08/11 07:44:32;;;;;;;26.20;23.43;;;;;;;16.77;90.80;100736.16;5043717;28;20737;-81
2021/08/11 07:46:59;;;;;;;25.13;22.77;;;;;;;16.89;90.25;100759.44;5044580;28;20232;-81
2021/08/11 07:49:35;;;;;;;27.50;24.50;;;;;;;17.07;91.12;100739.38;5044254;28;20201;-82
2021/08/11 07:52:02;;;;;;;26.90;23.73;;;;;;;17.15;89.41;100781.28;5044069;28;20216;-81
2021/08/11 07:54:28;;;;;;;27.00;24.43;;;;;;;17.07;87.61;100837.81;5043339;28;20275;-82
2021/08/11 07:56:55;;;;;;;26.13;23.80;;;;;;;17.04;88.26;100827.38;5042859;28;20254;-80
2021/08/11 07:59:21;;;;;;;26.53;23.37;;;;;;;17.14;87.53;100848.97;5043111;28;20213;-81
2021/08/11 08:01:48;;;;;;;25.13;22.60;;;;;;;17.04;87.36;100860.81;5043194;28;20205;-81
2021/08/11 08:04:16;;;;;;;25.37;22.93;;;;;;;17.14;87.46;100854.25;5043172;28;20244;-81
2021/08/11 08:06:43;;;;;;;25.87;23.20;;;;;;;17.21;86.72;100889.19;5043927;28;20210;-81
2021/08/11 08:09:09;;;;;;;23.57;21.30;;;;;;;17.28;86.31;100890.66;5044419;28;20209;-81
2021/08/11 08:11:36;;;;;;;23.50;21.23;;;;;;;17.37;86.27;100897.38;5043169;28;20210;-81
2021/08/11 08:14:02;;;;;;;23.73;21.63;;;;;;;17.27;84.74;100947.00;5043903;28;20217;-81
2021/08/11 08:16:32;;;;;;;21.90;19.90;;;;;;;17.26;85.76;100925.03;5043545;28;20228;-80
2021/08/11 08:18:58;;;;;;;22.20;20.07;;;;;;;17.19;84.70;100955.19;5043723;28;20220;-80
2021/08/11 08:21:26;;;;;;;24.23;22.07;;;;;;;17.26;86.41;100887.22;5043647;28;20209;-80
2021/08/11 08:23:52;;;;;;;23.03;21.03;;;;;;;17.32;85.61;100918.63;5042833;28;20237;-82
2021/08/11 08:26:19;;;;;;;23.33;21.07;;;;;;;17.39;85.26;100930.69;5044303;28;20214;-81
2021/08/11 08:28:48;;;;;;;23.50;21.47;;;;;;;17.35;86.03;100921.16;5043851;28;20209;-81
2021/08/11 08:31:15;;;;;;;22.70;20.67;;;;;;;17.35;84.95;100955.47;5044775;28;20625;-82
2021/08/11 08:33:42;;;;;;;24.10;21.83;;;;;;;17.20;84.43;100969.25;5043909;28;20439;-81
2021/08/11 08:36:10;;;;;;;22.43;20.53;;;;;;;17.21;85.16;100941.97;5044690;28;20233;-81
2021/08/11 08:38:37;;;;;;;24.10;19.83;;;;;;;17.40;85.48;100919.22;5043971;28;20202;-81
2021/08/11 08:41:04;;;;;;;24.90;22.03;;;;;;;17.50;84.99;100961.06;5044460;28;20267;-81
2021/08/11 08:43:30;;;;;;;23.60;21.20;;;;;;;17.64;84.96;100949.03;5043321;28;20379;-81
2021/08/11 08:45:57;;;;;;;22.50;20.37;;;;;;;17.81;85.16;100951.00;5044073;28;20291;-82
2021/08/11 08:48:25;;;;;;;20.33;18.63;;;;;;;17.89;83.78;101002.69;5043958;28;20565;-82
2021/08/11 08:50:52;;;;;;;24.60;22.37;;;;;;;17.78;84.56;100972.25;5043130;28;20205;-82
2021/08/11 08:53:22;;;;;;;24.47;22.40;;;;;;;17.86;85.50;100940.28;5044530;28;20229;-83
2021/08/11 08:55:51;;;;;;;23.23;21.23;;;;;;;17.80;83.55;101007.38;5044330;28;20294;-82
2021/08/11 08:58:18;;;;;;;23.73;21.27;;;;;;;17.74;84.20;100968.03;5043176;28;20209;-82
2021/08/11 09:00:47;;;;;;;25.53;22.87;;;;;;;17.61;85.91;100929.81;5044637;28;20582;-82
2021/08/11 09:03:13;;;;;;;24.67;22.17;;;;;;;17.37;84.58;100958.06;5043836;28;20733;-83
2021/08/11 09:05:40;;;;;;;26.13;23.53;;;;;;;17.46;84.59;100966.47;5045304;28;20230;-81
2021/08/11 09:08:08;;;;;;;23.27;21.33;;;;;;;17.60;84.34;100957.13;5044161;28;20213;-82
2021/08/11 09:10:37;;;;;;;24.37;21.83;;;;;;;17.71;85.30;100931.16;5043208;28;20213;-82
2021/08/11 09:13:13;;;;;;;24.03;21.73;;;;;;;17.82;84.34;100952.72;5043699;28;20275;-81
2021/08/11 09:15:41;;;;;;;25.90;22.93;;;;;;;17.91;84.95;100940.09;5045392;28;20213;-82
2021/08/11 09:18:33;;;;;;;23.43;21.00;;;;;;;17.94;83.84;100993.66;5047702;28;20235;-82
2021/08/11 09:21:11;;;;;;;24.03;21.73;;;;;;;17.93;83.17;101013.06;5048366;28;20729;-82
2021/08/11 09:23:39;;;;;;;23.07;20.77;;;;;;;17.86;82.43;101030.09;5047334;28;20229;-82
2021/08/11 09:26:08;;;;;;;24.00;21.90;;;;;;;18.05;83.32;100994.06;5048425;28;20293;-81
2021/08/11 09:28:39;;;;;;;22.17;20.17;;;;;;;18.14;81.53;101048.31;5048310;28;20205;-84
2021/08/11 09:31:24;;;;;;;23.33;20.90;;;;;;;18.34;82.89;101023.72;5047999;28;20198;-82
2021/08/11 09:33:52;;;;;;;23.03;20.80;;;;;;;18.47;81.48;101058.41;5047601;28;20229;-82
2021/08/11 09:36:18;;;;;;;20.27;18.40;;;;;;;18.55;81.08;101084.53;5047154;28;20590;-82
2021/08/11 09:39:00;;;;;;;20.23;18.53;;;;;;;18.58;79.33;101134.66;5048524;28;20202;-82
2021/08/11 09:41:26;;;;;;;20.80;18.97;;;;;;;18.58;77.76;101191.03;5046517;28;20592;-83
2021/08/11 09:44:07;;;;;;;21.50;19.40;;;;;;;18.64;80.02;101110.59;5046254;28;20228;-82
2021/08/11 09:46:33;;;;;;;20.90;17.27;;;;;;;18.65;78.07;101170.47;5047289;28;20290;-82
2021/08/11 09:49:00;;;;;;;22.20;20.00;;;;;;;18.56;79.89;101140.00;5047370;28;20214;-81
2021/08/11 09:51:27;;;;;;;21.33;19.03;;;;;;;18.65;79.02;101146.69;5046823;28;20215;-82
2021/08/11 09:53:54;;;;;;;18.77;17.17;;;;;;;18.62;77.78;101186.47;5047080;28;20236;-82
2021/08/11 09:56:20;;;;;;;20.70;18.50;;;;;;;18.46;78.67;101176.53;5046651;28;20260;-82
2021/08/11 09:59:21;;;;;;;19.10;17.20;;;;;;;18.57;77.50;101191.97;5047809;28;20603;-82
2021/08/11 10:01:49;;;;;;;18.27;16.57;;;;;;;18.57;77.56;101222.81;4693786;28;10000019;-82
2021/08/11 10:04:18;;;;;;;18.77;16.97;;;;;;;18.74;78.63;101172.75;5043427;28;20230;-81
2021/08/11 10:06:46;;;;;;;17.43;15.83;;;;;;;18.88;77.26;101217.19;5045369;28;20298;-81
2021/08/11 10:09:17;;;;;;;18.27;16.37;;;;;;;19.04;75.94;101267.69;5043478;28;20436;-82
2021/08/11 10:11:47;;;;;;;15.67;14.27;;;;;;;19.17;76.01;101258.31;5042973;28;20202;-82
2021/08/11 10:14:15;;;;;;;15.93;14.37;;;;;;;19.19;75.06;101303.25;5042151;28;20223;-83
2021/08/11 10:16:42;;;;;;;16.20;14.80;;;;;;;19.27;74.24;101319.69;5043916;28;20215;-82
2021/08/11 10:19:12;;;;;;;11.80;10.80;;;;;;;19.29;72.47;101388.47;5042936;28;20226;-82
2021/08/11 10:21:44;;;;;;;12.60;11.50;;;;;;;19.43;73.16;101363.13;5043805;28;20258;-81
2021/08/11 10:24:11;;;;;;;14.50;13.07;;;;;;;19.55;72.02;101408.59;5041171;28;20718;-82
2021/08/11 10:26:38;;;;;;;10.33;9.10;;;;;;;19.44;68.78;101552.00;5045104;28;20274;-82
2021/08/11 10:29:06;;;;;;;11.23;10.30;;;;;;;19.63;70.44;101481.50;5044779;28;20204;-81
2021/08/11 10:31:33;;;;;;;10.33;9.43;;;;;;;19.59;67.73;101587.66;5043532;28;20570;-84
2021/08/11 10:34:01;;;;;;;7.87;7.07;;;;;;;19.74;66.66;101626.84;5043976;28;20235;-81
2021/08/11 10:36:31;;;;;;;12.67;11.33;;;;;;;19.56;66.03;101649.56;5043549;28;20224;-81
2021/08/11 10:38:58;;;;;;;8.97;7.50;;;;;;;19.70;65.72;101622.53;5044057;28;20207;-83
2021/08/11 10:41:29;;;;;;;6.50;5.90;;;;;;;19.73;64.30;101730.22;5043852;28;20203;-81
2021/08/11 10:43:56;;;;;;;8.00;7.20;;;;;;;19.79;63.64;101712.28;5043849;28;21188;-83
2021/08/11 10:46:31;;;;;;;7.97;7.27;;;;;;;19.91;65.20;101673.88;5042916;28;20232;-80
2021/08/11 10:49:01;;;;;;;7.00;6.37;;;;;;;19.78;63.24;101779.47;5044512;28;20267;-81
2021/08/11 10:51:37;;;;;;;8.73;7.20;;;;;;;19.75;64.45;101717.78;5041531;28;20303;-78
2021/08/11 10:54:04;;;;;;;8.77;8.07;;;;;;;19.79;66.91;101602.81;5040084;28;20705;-78
2021/08/11 10:56:45;;;;;;;9.37;8.57;;;;;;;20.03;66.23;101600.97;5040681;28;20291;-78
2021/08/11 10:59:43;;;;;;;9.00;8.20;;;;;;;20.00;65.37;101681.47;5039290;28;20211;-78
2021/08/11 11:02:49;;;;;;;9.27;8.50;;;;;;;20.09;67.10;101589.25;5040012;28;20353;-80
2021/08/11 11:05:52;;;;;;;9.73;8.93;;;;;;;20.20;64.04;101674.53;5040798;28;20212;-78
2021/08/11 11:08:34;;;;;;;9.77;8.90;;;;;;;20.29;65.69;101644.97;5040321;28;20201;-77
2021/08/11 11:11:42;;;;;;;9.57;8.77;;;;;;;20.36;65.62;101638.53;5039809;28;20217;-77
2021/08/11 11:14:52;;;;;;;7.73;7.13;;;;;;;20.72;62.96;101700.78;5039649;28;20232;-78
2021/08/11 11:17:20;;;;;;;8.33;7.30;;;;;;;20.87;61.75;101777.13;5042226;28;20206;-78
2021/08/11 11:20:27;;;;;;;7.67;6.97;;;;;;;21.10;60.86;101807.16;5045624;28;20241;-79
2021/08/11 11:22:58;;;;;;;7.17;6.60;;;;;;;21.17;59.95;101828.09;5045889;28;20244;-77
2021/08/11 11:26:05;;;;;;;10.07;9.07;;;;;;;20.86;60.32;101846.19;5039280;28;20231;-77
2021/08/11 11:28:58;;;;;;;8.60;7.90;;;;;;;20.79;62.35;101734.06;5040160;28;20731;-77
2021/08/11 11:31:30;;;;;;;8.73;7.67;;;;;;;21.06;62.23;101733.88;5040695;28;20207;-77